<?xml version='1.0' encoding='UTF-8'?><gpx version="1.1" creator="JPX - https://github.com/jenetics/jpx" xmlns="http://www.topografix.com/GPX/1/1"><trk><trkseg><trkpt lat="43.79385" lon="10.4110763"><ele>8.0</ele><time>2026-05-02T17:17:43.678Z</time></trkpt><trkpt lat="43.7938916" lon="10.4110078"><ele>7.999999999999999</ele><time>2026-05-02T17:17:49.679Z</time></trkpt><trkpt lat="43.7939461" lon="10.4109589"><ele>8.0</ele><time>2026-05-02T17:17:56.679Z</time></trkpt><trkpt lat="43.7940006" lon="10.4108922"><ele>8.0</ele><time>2026-05-02T17:18:04.679Z</time></trkpt><trkpt lat="43.7940555" lon="10.4108341"><ele>7.999999999999999</ele><time>2026-05-02T17:18:12.679Z</time></trkpt><trkpt lat="43.7940989" lon="10.4107606"><ele>8.0</ele><time>2026-05-02T17:18:20.679Z</time></trkpt><trkpt lat="43.794149" lon="10.4106979"><ele>8.0</ele><time>2026-05-02T17:18:28.678Z</time></trkpt><trkpt lat="43.7941855" lon="10.4106253"><ele>8.0</ele><time>2026-05-02T17:18:36.677Z</time></trkpt><trkpt lat="43.7942265" lon="10.4105512"><ele>7.999999999999999</ele><time>2026-05-02T17:18:45.678Z</time></trkpt><trkpt lat="43.7942849" lon="10.4104934"><ele>8.0</ele><time>2026-05-02T17:18:55.679Z</time></trkpt><trkpt lat="43.794338" lon="10.4104269"><ele>8.0</ele><time>2026-05-02T17:19:01.682Z</time></trkpt><trkpt lat="43.7943808" lon="10.4103614"><ele>7.999999999999999</ele><time>2026-05-02T17:19:09.681Z</time></trkpt><trkpt lat="43.7944312" lon="10.4103035"><ele>8.0</ele><time>2026-05-02T17:19:16.681Z</time></trkpt><trkpt lat="43.7944879" lon="10.4102273"><ele>8.0</ele><time>2026-05-02T17:19:30.678Z</time></trkpt><trkpt lat="43.7945378" lon="10.4101619"><ele>8.0</ele><time>2026-05-02T17:19:37.681Z</time></trkpt><trkpt lat="43.7945882" lon="10.4101015"><ele>7.999999999999999</ele><time>2026-05-02T17:19:45.679Z</time></trkpt><trkpt lat="43.7946272" lon="10.4100177"><ele>8.0</ele><time>2026-05-02T17:19:56.681Z</time></trkpt><trkpt lat="43.7946856" lon="10.409966"><ele>8.0</ele><time>2026-05-02T17:20:02.681Z</time></trkpt><trkpt lat="43.7947292" lon="10.4098896"><ele>7.999999999999999</ele><time>2026-05-02T17:20:11.682Z</time></trkpt><trkpt lat="43.7947743" lon="10.409828"><ele>8.0</ele><time>2026-05-02T17:20:18.684Z</time></trkpt><trkpt lat="43.7948242" lon="10.4097571"><ele>8.0</ele><time>2026-05-02T17:20:27.684Z</time></trkpt><trkpt lat="43.7948788" lon="10.4097027"><ele>8.166666666666666</ele><time>2026-05-02T17:20:34.681Z</time></trkpt><trkpt lat="43.7949284" lon="10.4096346"><ele>8.333333333333332</ele><time>2026-05-02T17:20:42.682Z</time></trkpt><trkpt lat="43.7949775" lon="10.4095628"><ele>8.5</ele><time>2026-05-02T17:20:51.681Z</time></trkpt><trkpt lat="43.7950242" lon="10.4094933"><ele>8.666666666666666</ele><time>2026-05-02T17:20:59.681Z</time></trkpt><trkpt lat="43.7950689" lon="10.4094287"><ele>8.833333333333334</ele><time>2026-05-02T17:21:07.681Z</time></trkpt><trkpt lat="43.7951143" lon="10.4093642"><ele>9.0</ele><time>2026-05-02T17:21:13.68Z</time></trkpt><trkpt lat="43.7952143" lon="10.4092277"><ele>9.0</ele><time>2026-05-02T17:22:23.681Z</time></trkpt><trkpt lat="43.7952811" lon="10.4091405"><ele>9.0</ele><time>2026-05-02T17:22:40.681Z</time></trkpt><trkpt lat="43.7953312" lon="10.4090866"><ele>9.0</ele><time>2026-05-02T17:22:46.683Z</time></trkpt><trkpt lat="43.795407" lon="10.408961"><ele>9.0</ele><time>2026-05-02T17:23:08.68Z</time></trkpt><trkpt lat="43.7954549" lon="10.4089018"><ele>9.0</ele><time>2026-05-02T17:23:15.681Z</time></trkpt><trkpt lat="43.7955034" lon="10.4088358"><ele>9.0</ele><time>2026-05-02T17:23:24.682Z</time></trkpt><trkpt lat="43.795555" lon="10.4087697"><ele>8.857142857142858</ele><time>2026-05-02T17:23:33.68Z</time></trkpt><trkpt lat="43.7956031" lon="10.4086977"><ele>8.714285714285715</ele><time>2026-05-02T17:23:41.68Z</time></trkpt><trkpt lat="43.7956471" lon="10.4086294"><ele>8.571428571428571</ele><time>2026-05-02T17:23:52.68Z</time></trkpt><trkpt lat="43.7956981" lon="10.4085705"><ele>8.428571428571429</ele><time>2026-05-02T17:24:00.682Z</time></trkpt><trkpt lat="43.7957424" lon="10.4084986"><ele>8.285714285714285</ele><time>2026-05-02T17:24:07.68Z</time></trkpt><trkpt lat="43.7957882" lon="10.408432"><ele>8.142857142857142</ele><time>2026-05-02T17:24:15.683Z</time></trkpt><trkpt lat="43.7958383" lon="10.4083704"><ele>8.0</ele><time>2026-05-02T17:24:27.68Z</time></trkpt><trkpt lat="43.7958828" lon="10.4083084"><ele>8.0</ele><time>2026-05-02T17:24:34.68Z</time></trkpt><trkpt lat="43.7959321" lon="10.4082503"><ele>7.999999999999999</ele><time>2026-05-02T17:24:39.681Z</time></trkpt><trkpt lat="43.7959786" lon="10.4081774"><ele>8.0</ele><time>2026-05-02T17:24:48.68Z</time></trkpt><trkpt lat="43.7960272" lon="10.4081099"><ele>8.0</ele><time>2026-05-02T17:24:56.681Z</time></trkpt><trkpt lat="43.7960827" lon="10.4080484"><ele>7.999999999999999</ele><time>2026-05-02T17:25:03.681Z</time></trkpt><trkpt lat="43.7961333" lon="10.4079915"><ele>8.0</ele><time>2026-05-02T17:25:11.683Z</time></trkpt><trkpt lat="43.7961876" lon="10.4079373"><ele>8.0</ele><time>2026-05-02T17:25:17.681Z</time></trkpt><trkpt lat="43.7962375" lon="10.4078792"><ele>8.0</ele><time>2026-05-02T17:25:24.681Z</time></trkpt><trkpt lat="43.7962943" lon="10.4078324"><ele>7.999999999999999</ele><time>2026-05-02T17:25:32.683Z</time></trkpt><trkpt lat="43.7963422" lon="10.4077677"><ele>8.0</ele><time>2026-05-02T17:26:23.681Z</time></trkpt><trkpt lat="43.7963788" lon="10.4076737"><ele>8.0</ele><time>2026-05-02T17:26:30.678Z</time></trkpt><trkpt lat="43.7964109" lon="10.4075955"><ele>7.999999999999999</ele><time>2026-05-02T17:26:37.678Z</time></trkpt><trkpt lat="43.7964699" lon="10.407551"><ele>8.0</ele><time>2026-05-02T17:26:45.679Z</time></trkpt><trkpt lat="43.7965184" lon="10.4074875"><ele>8.0</ele><time>2026-05-02T17:26:53.68Z</time></trkpt><trkpt lat="43.7965512" lon="10.4074061"><ele>8.0</ele><time>2026-05-02T17:27:02.68Z</time></trkpt><trkpt lat="43.7965952" lon="10.4073415"><ele>7.999999999999999</ele><time>2026-05-02T17:27:11.678Z</time></trkpt><trkpt lat="43.796638" lon="10.4072715"><ele>8.0</ele><time>2026-05-02T17:27:19.678Z</time></trkpt><trkpt lat="43.7966742" lon="10.4071999"><ele>8.0</ele><time>2026-05-02T17:27:27.678Z</time></trkpt><trkpt lat="43.7967325" lon="10.4071568"><ele>7.999999999999999</ele><time>2026-05-02T17:27:37.682Z</time></trkpt><trkpt lat="43.7967682" lon="10.4070831"><ele>8.0</ele><time>2026-05-02T17:27:44.682Z</time></trkpt><trkpt lat="43.7968186" lon="10.4070245"><ele>8.0</ele><time>2026-05-02T17:27:53.679Z</time></trkpt><trkpt lat="43.7968551" lon="10.4069458"><ele>8.0</ele><time>2026-05-02T17:28:01.681Z</time></trkpt><trkpt lat="43.7968997" lon="10.4068803"><ele>7.999999999999999</ele><time>2026-05-02T17:28:11.678Z</time></trkpt><trkpt lat="43.7969424" lon="10.4067999"><ele>8.0</ele><time>2026-05-02T17:28:21.678Z</time></trkpt><trkpt lat="43.796997" lon="10.406751"><ele>8.0</ele><time>2026-05-02T17:28:29.68Z</time></trkpt><trkpt lat="43.7970473" lon="10.4066941"><ele>7.999999999999999</ele><time>2026-05-02T17:28:38.678Z</time></trkpt><trkpt lat="43.7971014" lon="10.4066054"><ele>8.0</ele><time>2026-05-02T17:29:02.681Z</time></trkpt><trkpt lat="43.7971359" lon="10.4065274"><ele>8.0</ele><time>2026-05-02T17:29:10.679Z</time></trkpt><trkpt lat="43.7971746" lon="10.406456"><ele>8.0</ele><time>2026-05-02T17:29:20.679Z</time></trkpt><trkpt lat="43.7972623" lon="10.4063803"><ele>7.999999999999999</ele><time>2026-05-02T17:29:42.682Z</time></trkpt><trkpt lat="43.7973101" lon="10.4063201"><ele>8.0</ele><time>2026-05-02T17:29:51.681Z</time></trkpt><trkpt lat="43.7973504" lon="10.40625"><ele>8.0</ele><time>2026-05-02T17:30:00.682Z</time></trkpt><trkpt lat="43.7973914" lon="10.4061807"><ele>7.999999999999999</ele><time>2026-05-02T17:30:08.683Z</time></trkpt><trkpt lat="43.7974357" lon="10.4061137"><ele>8.0</ele><time>2026-05-02T17:30:16.682Z</time></trkpt><trkpt lat="43.7974909" lon="10.4060517"><ele>8.0</ele><time>2026-05-02T17:30:24.682Z</time></trkpt><trkpt lat="43.7975255" lon="10.4059778"><ele>8.0</ele><time>2026-05-02T17:30:30.681Z</time></trkpt><trkpt lat="43.7975856" lon="10.4059247"><ele>7.999999999999999</ele><time>2026-05-02T17:30:42.682Z</time></trkpt><trkpt lat="43.7976345" lon="10.405856"><ele>8.0</ele><time>2026-05-02T17:30:50.682Z</time></trkpt><trkpt lat="43.7976908" lon="10.4058033"><ele>8.0</ele><time>2026-05-02T17:30:57.68Z</time></trkpt><trkpt lat="43.7977343" lon="10.4057375"><ele>7.999999999999999</ele><time>2026-05-02T17:31:04.681Z</time></trkpt><trkpt lat="43.7977908" lon="10.4056808"><ele>8.0</ele><time>2026-05-02T17:31:11.682Z</time></trkpt><trkpt lat="43.7978376" lon="10.4056213"><ele>8.0</ele><time>2026-05-02T17:31:20.681Z</time></trkpt><trkpt lat="43.7978821" lon="10.4055509"><ele>8.0</ele><time>2026-05-02T17:31:30.683Z</time></trkpt><trkpt lat="43.7979243" lon="10.4054836"><ele>7.999999999999999</ele><time>2026-05-02T17:31:36.683Z</time></trkpt><trkpt lat="43.797968" lon="10.4054104"><ele>8.0</ele><time>2026-05-02T17:31:46.678Z</time></trkpt><trkpt lat="43.7980124" lon="10.4053476"><ele>8.0</ele><time>2026-05-02T17:31:56.682Z</time></trkpt><trkpt lat="43.7980627" lon="10.4052799"><ele>7.999999999999999</ele><time>2026-05-02T17:32:05.683Z</time></trkpt><trkpt lat="43.7981114" lon="10.4052082"><ele>8.0</ele><time>2026-05-02T17:32:11.68Z</time></trkpt><trkpt lat="43.7981547" lon="10.4051441"><ele>8.0</ele><time>2026-05-02T17:32:20.683Z</time></trkpt><trkpt lat="43.7981998" lon="10.4050778"><ele>8.0</ele><time>2026-05-02T17:32:26.683Z</time></trkpt><trkpt lat="43.798249" lon="10.4050085"><ele>7.999999999999999</ele><time>2026-05-02T17:32:33.683Z</time></trkpt><trkpt lat="43.7983042" lon="10.4049545"><ele>8.0</ele><time>2026-05-02T17:32:41.681Z</time></trkpt><trkpt lat="43.7983462" lon="10.4048786"><ele>8.0</ele><time>2026-05-02T17:32:50.68Z</time></trkpt><trkpt lat="43.798395" lon="10.4048161"><ele>7.999999999999999</ele><time>2026-05-02T17:32:58.68Z</time></trkpt><trkpt lat="43.7984428" lon="10.4047482"><ele>8.0</ele><time>2026-05-02T17:33:05.683Z</time></trkpt><trkpt lat="43.7984899" lon="10.404682"><ele>8.0</ele><time>2026-05-02T17:33:13.682Z</time></trkpt><trkpt lat="43.7985408" lon="10.4046163"><ele>8.0</ele><time>2026-05-02T17:33:20.682Z</time></trkpt><trkpt lat="43.7985766" lon="10.4045398"><ele>7.999999999999999</ele><time>2026-05-02T17:33:34.68Z</time></trkpt><trkpt lat="43.7986282" lon="10.4044769"><ele>8.0</ele><time>2026-05-02T17:34:24.684Z</time></trkpt><trkpt lat="43.7986776" lon="10.4044057"><ele>8.0</ele><time>2026-05-02T17:37:02.682Z</time></trkpt><trkpt lat="43.798729" lon="10.4043458"><ele>7.999999999999999</ele><time>2026-05-02T17:37:07.68Z</time></trkpt><trkpt lat="43.7987627" lon="10.4042655"><ele>8.0</ele><time>2026-05-02T17:37:17.682Z</time></trkpt><trkpt lat="43.798819" lon="10.4042085"><ele>8.0</ele><time>2026-05-02T17:37:25.681Z</time></trkpt><trkpt lat="43.7988747" lon="10.4041502"><ele>8.0</ele><time>2026-05-02T17:37:31.682Z</time></trkpt><trkpt lat="43.7989175" lon="10.4040681"><ele>7.999999999999999</ele><time>2026-05-02T17:37:39.682Z</time></trkpt><trkpt lat="43.7989725" lon="10.4040177"><ele>8.0</ele><time>2026-05-02T17:37:45.682Z</time></trkpt><trkpt lat="43.7990139" lon="10.4039403"><ele>8.0</ele><time>2026-05-02T17:38:10.684Z</time></trkpt><trkpt lat="43.7990528" lon="10.4038687"><ele>7.999999999999999</ele><time>2026-05-02T17:38:17.682Z</time></trkpt><trkpt lat="43.7991036" lon="10.4038164"><ele>8.0</ele><time>2026-05-02T17:38:31.683Z</time></trkpt><trkpt lat="43.7991378" lon="10.4037422"><ele>8.0</ele><time>2026-05-02T17:39:13.682Z</time></trkpt><trkpt lat="43.7992165" lon="10.4036681"><ele>7.999999999999999</ele><time>2026-05-02T17:40:27.681Z</time></trkpt><trkpt lat="43.7992862" lon="10.4035965"><ele>8.0</ele><time>2026-05-02T17:41:08.683Z</time></trkpt><trkpt lat="43.799318" lon="10.4035179"><ele>8.0</ele><time>2026-05-02T17:41:19.681Z</time></trkpt><trkpt lat="43.7993911" lon="10.4034214"><ele>8.0</ele><time>2026-05-02T17:42:39.681Z</time></trkpt><trkpt lat="43.7994363" lon="10.4033503"><ele>7.999999999999999</ele><time>2026-05-02T17:42:47.682Z</time></trkpt><trkpt lat="43.7994872" lon="10.4032813"><ele>8.0</ele><time>2026-05-02T17:43:00.686Z</time></trkpt><trkpt lat="43.7995321" lon="10.4032184"><ele>8.0</ele><time>2026-05-02T17:43:07.681Z</time></trkpt><trkpt lat="43.7995716" lon="10.403147"><ele>7.999999999999999</ele><time>2026-05-02T17:43:15.685Z</time></trkpt><trkpt lat="43.7996199" lon="10.4030814"><ele>8.0</ele><time>2026-05-02T17:43:23.683Z</time></trkpt><trkpt lat="43.7996737" lon="10.4030171"><ele>8.0</ele><time>2026-05-02T17:43:32.681Z</time></trkpt><trkpt lat="43.7997276" lon="10.4029507"><ele>7.999999999999999</ele><time>2026-05-02T17:43:38.682Z</time></trkpt><trkpt lat="43.7997814" lon="10.4029045"><ele>8.0</ele><time>2026-05-02T17:43:45.685Z</time></trkpt><trkpt lat="43.7998268" lon="10.4028415"><ele>8.0</ele><time>2026-05-02T17:43:52.682Z</time></trkpt><trkpt lat="43.7998633" lon="10.4027695"><ele>8.0</ele><time>2026-05-02T17:44:00.682Z</time></trkpt><trkpt lat="43.799915" lon="10.4027144"><ele>7.999999999999999</ele><time>2026-05-02T17:44:07.682Z</time></trkpt><trkpt lat="43.7999676" lon="10.4026497"><ele>8.0</ele><time>2026-05-02T17:44:14.681Z</time></trkpt><trkpt lat="43.8000183" lon="10.4025891"><ele>8.0</ele><time>2026-05-02T17:44:21.682Z</time></trkpt><trkpt lat="43.8000691" lon="10.4025187"><ele>7.999999999999999</ele><time>2026-05-02T17:44:28.682Z</time></trkpt><trkpt lat="43.8001115" lon="10.4024481"><ele>8.0</ele><time>2026-05-02T17:44:35.681Z</time></trkpt><trkpt lat="43.8001533" lon="10.4023791"><ele>8.0</ele><time>2026-05-02T17:44:42.682Z</time></trkpt><trkpt lat="43.8002014" lon="10.4023074"><ele>8.0</ele><time>2026-05-02T17:44:50.682Z</time></trkpt><trkpt lat="43.8002512" lon="10.4022348"><ele>7.999999999999999</ele><time>2026-05-02T17:44:59.684Z</time></trkpt><trkpt lat="43.8003046" lon="10.4021691"><ele>8.0</ele><time>2026-05-02T17:45:07.68Z</time></trkpt><trkpt lat="43.8003495" lon="10.4020939"><ele>8.0</ele><time>2026-05-02T17:45:13.684Z</time></trkpt><trkpt lat="43.8003928" lon="10.402028"><ele>7.999999999999999</ele><time>2026-05-02T17:45:20.684Z</time></trkpt><trkpt lat="43.8004438" lon="10.4019564"><ele>8.0</ele><time>2026-05-02T17:45:28.682Z</time></trkpt><trkpt lat="43.8004993" lon="10.4019027"><ele>8.0</ele><time>2026-05-02T17:45:35.684Z</time></trkpt><trkpt lat="43.8005443" lon="10.4018382"><ele>8.142857142857142</ele><time>2026-05-02T17:45:44.682Z</time></trkpt><trkpt lat="43.8005901" lon="10.4017706"><ele>8.285714285714285</ele><time>2026-05-02T17:45:50.684Z</time></trkpt><trkpt lat="43.8006297" lon="10.4016957"><ele>8.428571428571429</ele><time>2026-05-02T17:45:57.682Z</time></trkpt><trkpt lat="43.8006778" lon="10.40163"><ele>8.571428571428571</ele><time>2026-05-02T17:46:04.68Z</time></trkpt><trkpt lat="43.8007304" lon="10.4015641"><ele>8.714285714285715</ele><time>2026-05-02T17:46:12.683Z</time></trkpt><trkpt lat="43.800787" lon="10.4015063"><ele>8.857142857142858</ele><time>2026-05-02T17:46:19.684Z</time></trkpt><trkpt lat="43.8008378" lon="10.4014351"><ele>9.0</ele><time>2026-05-02T17:46:27.684Z</time></trkpt><trkpt lat="43.800888" lon="10.4013685"><ele>8.857142857142858</ele><time>2026-05-02T17:46:34.681Z</time></trkpt><trkpt lat="43.8009349" lon="10.4012996"><ele>8.714285714285715</ele><time>2026-05-02T17:46:41.682Z</time></trkpt><trkpt lat="43.8009749" lon="10.4012315"><ele>8.571428571428571</ele><time>2026-05-02T17:46:52.681Z</time></trkpt><trkpt lat="43.8010173" lon="10.4011652"><ele>8.428571428571429</ele><time>2026-05-02T17:46:58.683Z</time></trkpt><trkpt lat="43.80106" lon="10.4010951"><ele>8.285714285714285</ele><time>2026-05-02T17:47:05.684Z</time></trkpt><trkpt lat="43.8011149" lon="10.4010342"><ele>8.142857142857142</ele><time>2026-05-02T17:47:12.68Z</time></trkpt><trkpt lat="43.8011632" lon="10.4009697"><ele>8.0</ele><time>2026-05-02T17:47:20.685Z</time></trkpt><trkpt lat="43.8012129" lon="10.4008988"><ele>8.0</ele><time>2026-05-02T17:47:28.684Z</time></trkpt><trkpt lat="43.8012699" lon="10.4008453"><ele>7.999999999999999</ele><time>2026-05-02T17:47:35.684Z</time></trkpt><trkpt lat="43.8013113" lon="10.4007787"><ele>8.0</ele><time>2026-05-02T17:47:42.681Z</time></trkpt><trkpt lat="43.8013612" lon="10.4007182"><ele>8.0</ele><time>2026-05-02T17:47:49.684Z</time></trkpt><trkpt lat="43.8014348" lon="10.4006096"><ele>7.999999999999999</ele><time>2026-05-02T17:48:08.682Z</time></trkpt><trkpt lat="43.8014823" lon="10.4005472"><ele>8.0</ele><time>2026-05-02T17:48:17.683Z</time></trkpt><trkpt lat="43.801528" lon="10.4004803"><ele>8.0</ele><time>2026-05-02T17:48:24.684Z</time></trkpt><trkpt lat="43.8015748" lon="10.4004188"><ele>8.0</ele><time>2026-05-02T17:48:33.682Z</time></trkpt><trkpt lat="43.8016146" lon="10.4003467"><ele>7.999999999999999</ele><time>2026-05-02T17:48:42.684Z</time></trkpt><trkpt lat="43.8016635" lon="10.4002759"><ele>8.0</ele><time>2026-05-02T17:48:50.682Z</time></trkpt><trkpt lat="43.8017166" lon="10.4002057"><ele>8.0</ele><time>2026-05-02T17:49:04.683Z</time></trkpt><trkpt lat="43.8017671" lon="10.4001446"><ele>7.999999999999999</ele><time>2026-05-02T17:49:11.683Z</time></trkpt><trkpt lat="43.8018129" lon="10.4000802"><ele>8.0</ele><time>2026-05-02T17:49:17.683Z</time></trkpt><trkpt lat="43.8018616" lon="10.4000191"><ele>8.0</ele><time>2026-05-02T17:49:23.684Z</time></trkpt><trkpt lat="43.8019029" lon="10.3999494"><ele>8.0</ele><time>2026-05-02T17:49:33.683Z</time></trkpt><trkpt lat="43.801961" lon="10.3998976"><ele>7.999999999999999</ele><time>2026-05-02T17:49:40.684Z</time></trkpt><trkpt lat="43.8020229" lon="10.3998465"><ele>8.0</ele><time>2026-05-02T17:49:47.68Z</time></trkpt><trkpt lat="43.802078" lon="10.3997926"><ele>8.0</ele><time>2026-05-02T17:49:55.681Z</time></trkpt><trkpt lat="43.8021442" lon="10.3997698"><ele>7.999999999999999</ele><time>2026-05-02T17:50:04.68Z</time></trkpt><trkpt lat="43.8022363" lon="10.3997101"><ele>8.0</ele><time>2026-05-02T17:50:55.683Z</time></trkpt><trkpt lat="43.8022914" lon="10.3996513"><ele>8.0</ele><time>2026-05-02T17:51:04.68Z</time></trkpt><trkpt lat="43.8023464" lon="10.3996075"><ele>8.0</ele><time>2026-05-02T17:51:11.682Z</time></trkpt><trkpt lat="43.8024115" lon="10.3995733"><ele>7.999999999999999</ele><time>2026-05-02T17:51:19.682Z</time></trkpt><trkpt lat="43.8024718" lon="10.3995459"><ele>8.0</ele><time>2026-05-02T17:51:25.682Z</time></trkpt><trkpt lat="43.8025367" lon="10.3995153"><ele>8.0</ele><time>2026-05-02T17:51:33.682Z</time></trkpt><trkpt lat="43.8026015" lon="10.3994991"><ele>7.999999999999999</ele><time>2026-05-02T17:51:40.68Z</time></trkpt><trkpt lat="43.8026705" lon="10.3994888"><ele>8.0</ele><time>2026-05-02T17:51:49.679Z</time></trkpt><trkpt lat="43.8027404" lon="10.3994661"><ele>8.0</ele><time>2026-05-02T17:51:58.681Z</time></trkpt><trkpt lat="43.8028056" lon="10.3994577"><ele>7.857142857142857</ele><time>2026-05-02T17:52:07.68Z</time></trkpt><trkpt lat="43.8028688" lon="10.3994506"><ele>7.7142857142857135</ele><time>2026-05-02T17:52:13.679Z</time></trkpt><trkpt lat="43.8029372" lon="10.3994558"><ele>7.571428571428571</ele><time>2026-05-02T17:52:28.681Z</time></trkpt><trkpt lat="43.8030009" lon="10.3994666"><ele>7.428571428571429</ele><time>2026-05-02T17:52:37.68Z</time></trkpt><trkpt lat="43.8030693" lon="10.3994712"><ele>7.285714285714286</ele><time>2026-05-02T17:52:45.682Z</time></trkpt><trkpt lat="43.8031396" lon="10.3994916"><ele>7.142857142857142</ele><time>2026-05-02T17:52:52.68Z</time></trkpt><trkpt lat="43.8032047" lon="10.3995023"><ele>7.0</ele><time>2026-05-02T17:52:58.683Z</time></trkpt><trkpt lat="43.803268" lon="10.3995302"><ele>7.0</ele><time>2026-05-02T17:53:04.681Z</time></trkpt><trkpt lat="43.8033331" lon="10.3995555"><ele>7.0</ele><time>2026-05-02T17:53:11.682Z</time></trkpt><trkpt lat="43.8034" lon="10.3995699"><ele>7.0</ele><time>2026-05-02T17:53:18.681Z</time></trkpt><trkpt lat="43.8034577" lon="10.399611"><ele>7.0</ele><time>2026-05-02T17:53:25.683Z</time></trkpt><trkpt lat="43.8035126" lon="10.3996669"><ele>7.0</ele><time>2026-05-02T17:53:34.684Z</time></trkpt><trkpt lat="43.8035745" lon="10.3997185"><ele>7.0</ele><time>2026-05-02T17:53:41.681Z</time></trkpt><trkpt lat="43.8036246" lon="10.3997739"><ele>7.0</ele><time>2026-05-02T17:53:48.681Z</time></trkpt><trkpt lat="43.8036745" lon="10.3998348"><ele>7.285714285714286</ele><time>2026-05-02T17:53:56.68Z</time></trkpt><trkpt lat="43.8037294" lon="10.3998975"><ele>7.571428571428571</ele><time>2026-05-02T17:54:03.68Z</time></trkpt><trkpt lat="43.8037764" lon="10.3999581"><ele>7.857142857142858</ele><time>2026-05-02T17:54:11.681Z</time></trkpt><trkpt lat="43.8038215" lon="10.4000302"><ele>8.142857142857142</ele><time>2026-05-02T17:54:24.681Z</time></trkpt><trkpt lat="43.8038746" lon="10.4000953"><ele>8.428571428571429</ele><time>2026-05-02T17:54:33.681Z</time></trkpt><trkpt lat="43.8039125" lon="10.4001731"><ele>8.714285714285715</ele><time>2026-05-02T17:54:44.682Z</time></trkpt><trkpt lat="43.8039539" lon="10.4002392"><ele>9.0</ele><time>2026-05-02T17:54:52.682Z</time></trkpt><trkpt lat="43.8039921" lon="10.4003174"><ele>9.000000000000002</ele><time>2026-05-02T17:55:00.683Z</time></trkpt><trkpt lat="43.8040481" lon="10.4003786"><ele>9.0</ele><time>2026-05-02T17:55:09.681Z</time></trkpt><trkpt lat="43.8040854" lon="10.4004562"><ele>9.0</ele><time>2026-05-02T17:55:16.682Z</time></trkpt><trkpt lat="43.804126" lon="10.4005282"><ele>9.0</ele><time>2026-05-02T17:55:23.681Z</time></trkpt><trkpt lat="43.8041888" lon="10.4006533"><ele>9.0</ele><time>2026-05-02T17:55:49.681Z</time></trkpt><trkpt lat="43.804234" lon="10.4007227"><ele>9.000000000000002</ele><time>2026-05-02T17:55:56.681Z</time></trkpt><trkpt lat="43.8042629" lon="10.4008056"><ele>9.0</ele><time>2026-05-02T17:56:06.683Z</time></trkpt><trkpt lat="43.8043438" lon="10.4009304"><ele>8.857142857142858</ele><time>2026-05-02T17:56:53.68Z</time></trkpt><trkpt lat="43.8044096" lon="10.4009649"><ele>8.714285714285715</ele><time>2026-05-02T17:56:59.681Z</time></trkpt><trkpt lat="43.8044571" lon="10.4010243"><ele>8.571428571428571</ele><time>2026-05-02T17:57:07.682Z</time></trkpt><trkpt lat="43.8044844" lon="10.4011219"><ele>8.428571428571429</ele><time>2026-05-02T17:57:13.681Z</time></trkpt><trkpt lat="43.8045135" lon="10.4012052"><ele>8.285714285714285</ele><time>2026-05-02T17:57:18.682Z</time></trkpt><trkpt lat="43.8045525" lon="10.4012833"><ele>8.142857142857142</ele><time>2026-05-02T17:57:23.68Z</time></trkpt><trkpt lat="43.8045982" lon="10.4013543"><ele>8.0</ele><time>2026-05-02T17:57:29.681Z</time></trkpt><trkpt lat="43.8046328" lon="10.4014346"><ele>8.0</ele><time>2026-05-02T17:57:35.681Z</time></trkpt><trkpt lat="43.8046658" lon="10.4015109"><ele>7.999999999999999</ele><time>2026-05-02T17:57:41.68Z</time></trkpt><trkpt lat="43.8047137" lon="10.4015816"><ele>8.0</ele><time>2026-05-02T17:57:49.682Z</time></trkpt><trkpt lat="43.8047497" lon="10.4016539"><ele>8.0</ele><time>2026-05-02T17:57:55.681Z</time></trkpt><trkpt lat="43.8047978" lon="10.4017217"><ele>7.999999999999999</ele><time>2026-05-02T17:58:02.681Z</time></trkpt><trkpt lat="43.8048364" lon="10.4018067"><ele>8.0</ele><time>2026-05-02T17:58:09.68Z</time></trkpt><trkpt lat="43.804882" lon="10.4018776"><ele>8.0</ele><time>2026-05-02T17:58:17.681Z</time></trkpt><trkpt lat="43.804927" lon="10.4019469"><ele>8.0</ele><time>2026-05-02T17:58:24.68Z</time></trkpt><trkpt lat="43.8049611" lon="10.4020291"><ele>7.999999999999999</ele><time>2026-05-02T17:58:31.685Z</time></trkpt><trkpt lat="43.8049972" lon="10.4021032"><ele>8.0</ele><time>2026-05-02T17:58:41.681Z</time></trkpt><trkpt lat="43.8050379" lon="10.4021728"><ele>8.0</ele><time>2026-05-02T17:58:49.68Z</time></trkpt><trkpt lat="43.8050775" lon="10.4022423"><ele>7.999999999999999</ele><time>2026-05-02T17:58:56.681Z</time></trkpt><trkpt lat="43.8051295" lon="10.402296"><ele>8.0</ele><time>2026-05-02T17:59:03.682Z</time></trkpt><trkpt lat="43.8051781" lon="10.4023606"><ele>8.0</ele><time>2026-05-02T17:59:10.681Z</time></trkpt><trkpt lat="43.8052174" lon="10.4024304"><ele>8.0</ele><time>2026-05-02T17:59:18.682Z</time></trkpt><trkpt lat="43.805261" lon="10.4025011"><ele>7.999999999999999</ele><time>2026-05-02T17:59:25.682Z</time></trkpt><trkpt lat="43.8053024" lon="10.4025768"><ele>8.0</ele><time>2026-05-02T17:59:32.68Z</time></trkpt><trkpt lat="43.8053468" lon="10.4026442"><ele>8.0</ele><time>2026-05-02T17:59:39.681Z</time></trkpt><trkpt lat="43.8053617" lon="10.4027397"><ele>7.999999999999999</ele><time>2026-05-02T18:00:07.682Z</time></trkpt><trkpt lat="43.8054132" lon="10.4028035"><ele>8.0</ele><time>2026-05-02T18:00:14.682Z</time></trkpt><trkpt lat="43.8054547" lon="10.4028709"><ele>8.0</ele><time>2026-05-02T18:00:23.681Z</time></trkpt><trkpt lat="43.8054982" lon="10.4029508"><ele>8.285714285714285</ele><time>2026-05-02T18:00:30.682Z</time></trkpt><trkpt lat="43.8055315" lon="10.4030267"><ele>8.571428571428571</ele><time>2026-05-02T18:00:40.682Z</time></trkpt><trkpt lat="43.8055647" lon="10.4031104"><ele>8.857142857142858</ele><time>2026-05-02T18:00:47.684Z</time></trkpt><trkpt lat="43.8056165" lon="10.4031778"><ele>9.142857142857142</ele><time>2026-05-02T18:00:54.683Z</time></trkpt><trkpt lat="43.8056565" lon="10.4032572"><ele>9.428571428571429</ele><time>2026-05-02T18:01:01.682Z</time></trkpt><trkpt lat="43.8056916" lon="10.4033345"><ele>9.714285714285714</ele><time>2026-05-02T18:01:08.683Z</time></trkpt><trkpt lat="43.8057369" lon="10.4034062"><ele>10.0</ele><time>2026-05-02T18:01:15.681Z</time></trkpt><trkpt lat="43.8057788" lon="10.4034788"><ele>10.0</ele><time>2026-05-02T18:01:23.681Z</time></trkpt><trkpt lat="43.8058298" lon="10.4035488"><ele>10.0</ele><time>2026-05-02T18:01:31.681Z</time></trkpt><trkpt lat="43.8058728" lon="10.4036219"><ele>10.0</ele><time>2026-05-02T18:01:38.682Z</time></trkpt><trkpt lat="43.8059134" lon="10.4036926"><ele>10.0</ele><time>2026-05-02T18:01:45.682Z</time></trkpt><trkpt lat="43.8059499" lon="10.4037719"><ele>10.0</ele><time>2026-05-02T18:01:52.681Z</time></trkpt><trkpt lat="43.8059943" lon="10.4038446"><ele>10.0</ele><time>2026-05-02T18:01:59.681Z</time></trkpt><trkpt lat="43.8060322" lon="10.403918"><ele>10.0</ele><time>2026-05-02T18:02:06.682Z</time></trkpt><trkpt lat="43.8060828" lon="10.4039802"><ele>9.857142857142858</ele><time>2026-05-02T18:02:14.683Z</time></trkpt><trkpt lat="43.8061182" lon="10.4040572"><ele>9.714285714285715</ele><time>2026-05-02T18:02:22.679Z</time></trkpt><trkpt lat="43.8061542" lon="10.4041378"><ele>9.571428571428573</ele><time>2026-05-02T18:02:29.681Z</time></trkpt><trkpt lat="43.8062055" lon="10.4042008"><ele>9.428571428571429</ele><time>2026-05-02T18:02:37.684Z</time></trkpt><trkpt lat="43.8062433" lon="10.4042752"><ele>9.285714285714286</ele><time>2026-05-02T18:02:45.681Z</time></trkpt><trkpt lat="43.8062846" lon="10.4043544"><ele>9.142857142857144</ele><time>2026-05-02T18:02:52.684Z</time></trkpt><trkpt lat="43.8063274" lon="10.4044354"><ele>9.0</ele><time>2026-05-02T18:03:00.682Z</time></trkpt><trkpt lat="43.8063751" lon="10.4044932"><ele>9.000000000000002</ele><time>2026-05-02T18:03:07.681Z</time></trkpt><trkpt lat="43.8064179" lon="10.4045739"><ele>9.0</ele><time>2026-05-02T18:03:14.685Z</time></trkpt><trkpt lat="43.8064594" lon="10.4046507"><ele>9.0</ele><time>2026-05-02T18:03:21.68Z</time></trkpt><trkpt lat="43.8065061" lon="10.4047122"><ele>9.0</ele><time>2026-05-02T18:03:29.682Z</time></trkpt><trkpt lat="43.8065383" lon="10.4047936"><ele>9.0</ele><time>2026-05-02T18:03:36.682Z</time></trkpt><trkpt lat="43.8065805" lon="10.4048645"><ele>9.000000000000002</ele><time>2026-05-02T18:03:43.68Z</time></trkpt><trkpt lat="43.8066181" lon="10.4049543"><ele>9.0</ele><time>2026-05-02T18:03:51.682Z</time></trkpt><trkpt lat="43.8066793" lon="10.4049987"><ele>9.142857142857144</ele><time>2026-05-02T18:03:59.683Z</time></trkpt><trkpt lat="43.8067052" lon="10.4050804"><ele>9.285714285714286</ele><time>2026-05-02T18:04:06.683Z</time></trkpt><trkpt lat="43.8067508" lon="10.4051511"><ele>9.428571428571429</ele><time>2026-05-02T18:04:18.682Z</time></trkpt><trkpt lat="43.8067992" lon="10.4052102"><ele>9.571428571428573</ele><time>2026-05-02T18:04:25.681Z</time></trkpt><trkpt lat="43.8068423" lon="10.4052832"><ele>9.714285714285715</ele><time>2026-05-02T18:04:32.683Z</time></trkpt><trkpt lat="43.8068849" lon="10.4053594"><ele>9.857142857142858</ele><time>2026-05-02T18:04:39.681Z</time></trkpt><trkpt lat="43.8069239" lon="10.405428"><ele>10.0</ele><time>2026-05-02T18:04:46.68Z</time></trkpt><trkpt lat="43.8069664" lon="10.4054955"><ele>9.571428571428571</ele><time>2026-05-02T18:04:54.681Z</time></trkpt><trkpt lat="43.8069933" lon="10.4055765"><ele>9.142857142857142</ele><time>2026-05-02T18:05:00.683Z</time></trkpt><trkpt lat="43.8070427" lon="10.4056435"><ele>8.714285714285715</ele><time>2026-05-02T18:05:07.683Z</time></trkpt><trkpt lat="43.8070846" lon="10.4057207"><ele>8.285714285714285</ele><time>2026-05-02T18:05:16.68Z</time></trkpt><trkpt lat="43.8071277" lon="10.4057868"><ele>7.857142857142858</ele><time>2026-05-02T18:05:23.682Z</time></trkpt><trkpt lat="43.8071731" lon="10.4058522"><ele>7.428571428571429</ele><time>2026-05-02T18:05:30.684Z</time></trkpt><trkpt lat="43.8072166" lon="10.4059202"><ele>7.0</ele><time>2026-05-02T18:05:37.681Z</time></trkpt><trkpt lat="43.8072574" lon="10.4059907"><ele>7.0</ele><time>2026-05-02T18:05:44.684Z</time></trkpt><trkpt lat="43.8072887" lon="10.4060669"><ele>7.0</ele><time>2026-05-02T18:05:50.678Z</time></trkpt><trkpt lat="43.8073303" lon="10.4061337"><ele>7.0</ele><time>2026-05-02T18:05:58.681Z</time></trkpt><trkpt lat="43.8073638" lon="10.4062096"><ele>7.0</ele><time>2026-05-02T18:06:05.683Z</time></trkpt><trkpt lat="43.807409" lon="10.4062852"><ele>7.0</ele><time>2026-05-02T18:06:12.684Z</time></trkpt><trkpt lat="43.807465" lon="10.4063533"><ele>7.0</ele><time>2026-05-02T18:06:19.682Z</time></trkpt><trkpt lat="43.8075171" lon="10.406417"><ele>7.0</ele><time>2026-05-02T18:06:26.681Z</time></trkpt><trkpt lat="43.8075507" lon="10.4065316"><ele>7.142857142857142</ele><time>2026-05-02T18:06:43.682Z</time></trkpt><trkpt lat="43.8076338" lon="10.4066109"><ele>7.285714285714286</ele><time>2026-05-02T18:07:03.681Z</time></trkpt><trkpt lat="43.8076783" lon="10.4066811"><ele>7.428571428571429</ele><time>2026-05-02T18:07:11.681Z</time></trkpt><trkpt lat="43.8077265" lon="10.4067465"><ele>7.571428571428571</ele><time>2026-05-02T18:07:23.679Z</time></trkpt><trkpt lat="43.8077832" lon="10.4067899"><ele>7.7142857142857135</ele><time>2026-05-02T18:07:32.681Z</time></trkpt><trkpt lat="43.8078283" lon="10.4068525"><ele>7.857142857142857</ele><time>2026-05-02T18:07:46.682Z</time></trkpt><trkpt lat="43.8078542" lon="10.4069325"><ele>8.0</ele><time>2026-05-02T18:09:03.679Z</time></trkpt><trkpt lat="43.8079007" lon="10.406992"><ele>7.999999999999999</ele><time>2026-05-02T18:09:11.68Z</time></trkpt><trkpt lat="43.8079545" lon="10.4070544"><ele>8.0</ele><time>2026-05-02T18:09:19.68Z</time></trkpt><trkpt lat="43.8080083" lon="10.407107"><ele>8.0</ele><time>2026-05-02T18:09:27.682Z</time></trkpt><trkpt lat="43.8080625" lon="10.4071619"><ele>8.0</ele><time>2026-05-02T18:09:39.682Z</time></trkpt><trkpt lat="43.8081104" lon="10.4072265"><ele>7.999999999999999</ele><time>2026-05-02T18:09:47.679Z</time></trkpt><trkpt lat="43.808158" lon="10.4072864"><ele>8.0</ele><time>2026-05-02T18:09:55.683Z</time></trkpt><trkpt lat="43.8082595" lon="10.4073682"><ele>8.0</ele><time>2026-05-02T18:10:28.681Z</time></trkpt><trkpt lat="43.8083166" lon="10.4074232"><ele>7.999999999999999</ele><time>2026-05-02T18:10:38.682Z</time></trkpt><trkpt lat="43.8083685" lon="10.4074797"><ele>8.0</ele><time>2026-05-02T18:10:46.682Z</time></trkpt><trkpt lat="43.8084182" lon="10.4075344"><ele>8.0</ele><time>2026-05-02T18:10:53.679Z</time></trkpt><trkpt lat="43.8084732" lon="10.4075943"><ele>7.999999999999999</ele><time>2026-05-02T18:11:01.682Z</time></trkpt><trkpt lat="43.808531" lon="10.4076323"><ele>8.0</ele><time>2026-05-02T18:11:08.684Z</time></trkpt><trkpt lat="43.8085897" lon="10.4076817"><ele>8.0</ele><time>2026-05-02T18:11:15.682Z</time></trkpt><trkpt lat="43.808645" lon="10.4077295"><ele>8.142857142857142</ele><time>2026-05-02T18:11:22.681Z</time></trkpt><trkpt lat="43.808704" lon="10.4077778"><ele>8.285714285714285</ele><time>2026-05-02T18:11:31.681Z</time></trkpt><trkpt lat="43.8087598" lon="10.4078434"><ele>8.428571428571429</ele><time>2026-05-02T18:11:40.681Z</time></trkpt><trkpt lat="43.8088077" lon="10.4079019"><ele>8.571428571428571</ele><time>2026-05-02T18:11:46.68Z</time></trkpt><trkpt lat="43.8088618" lon="10.4079469"><ele>8.714285714285715</ele><time>2026-05-02T18:11:52.682Z</time></trkpt><trkpt lat="43.8089171" lon="10.4080031"><ele>8.857142857142858</ele><time>2026-05-02T18:11:59.681Z</time></trkpt><trkpt lat="43.8089834" lon="10.4080384"><ele>9.0</ele><time>2026-05-02T18:12:06.681Z</time></trkpt><trkpt lat="43.809034" lon="10.408091"><ele>9.000000000000002</ele><time>2026-05-02T18:12:13.68Z</time></trkpt><trkpt lat="43.809096" lon="10.4081324"><ele>9.0</ele><time>2026-05-02T18:12:20.679Z</time></trkpt><trkpt lat="43.8091527" lon="10.4081773"><ele>9.0</ele><time>2026-05-02T18:12:27.682Z</time></trkpt><trkpt lat="43.8092141" lon="10.4082238"><ele>9.0</ele><time>2026-05-02T18:12:34.681Z</time></trkpt><trkpt lat="43.8092767" lon="10.4082663"><ele>9.0</ele><time>2026-05-02T18:12:41.682Z</time></trkpt><trkpt lat="43.809336" lon="10.4082971"><ele>9.000000000000002</ele><time>2026-05-02T18:12:47.68Z</time></trkpt><trkpt lat="43.809398" lon="10.408334"><ele>9.0</ele><time>2026-05-02T18:12:55.681Z</time></trkpt><trkpt lat="43.8094525" lon="10.4083872"><ele>9.000000000000002</ele><time>2026-05-02T18:13:03.678Z</time></trkpt><trkpt lat="43.8095158" lon="10.4084274"><ele>9.0</ele><time>2026-05-02T18:13:11.681Z</time></trkpt><trkpt lat="43.8095855" lon="10.4084589"><ele>9.0</ele><time>2026-05-02T18:13:18.684Z</time></trkpt><trkpt lat="43.8096328" lon="10.4085201"><ele>9.0</ele><time>2026-05-02T18:13:25.68Z</time></trkpt><trkpt lat="43.8096973" lon="10.4085551"><ele>9.0</ele><time>2026-05-02T18:13:31.68Z</time></trkpt><trkpt lat="43.8097594" lon="10.4085789"><ele>9.000000000000002</ele><time>2026-05-02T18:13:37.681Z</time></trkpt><trkpt lat="43.8098187" lon="10.4086248"><ele>9.0</ele><time>2026-05-02T18:13:53.682Z</time></trkpt><trkpt lat="43.8098807" lon="10.4086539"><ele>9.000000000000002</ele><time>2026-05-02T18:14:00.683Z</time></trkpt><trkpt lat="43.8099396" lon="10.4087095"><ele>9.0</ele><time>2026-05-02T18:14:08.69Z</time></trkpt><trkpt lat="43.8100028" lon="10.4087529"><ele>9.0</ele><time>2026-05-02T18:14:16.682Z</time></trkpt><trkpt lat="43.8100627" lon="10.4087833"><ele>9.0</ele><time>2026-05-02T18:14:23.681Z</time></trkpt><trkpt lat="43.8101246" lon="10.4088251"><ele>9.0</ele><time>2026-05-02T18:14:30.683Z</time></trkpt><trkpt lat="43.8101822" lon="10.4088839"><ele>9.000000000000002</ele><time>2026-05-02T18:14:39.681Z</time></trkpt><trkpt lat="43.810242" lon="10.4089277"><ele>9.0</ele><time>2026-05-02T18:14:47.681Z</time></trkpt><trkpt lat="43.8103059" lon="10.4089507"><ele>8.714285714285715</ele><time>2026-05-02T18:14:54.684Z</time></trkpt><trkpt lat="43.8103611" lon="10.408996"><ele>8.428571428571429</ele><time>2026-05-02T18:15:00.681Z</time></trkpt><trkpt lat="43.8104201" lon="10.4090395"><ele>8.142857142857142</ele><time>2026-05-02T18:15:08.681Z</time></trkpt><trkpt lat="43.8104809" lon="10.4090843"><ele>7.857142857142858</ele><time>2026-05-02T18:15:15.684Z</time></trkpt><trkpt lat="43.81054" lon="10.4091344"><ele>7.571428571428571</ele><time>2026-05-02T18:15:22.679Z</time></trkpt><trkpt lat="43.8106022" lon="10.4091757"><ele>7.285714285714286</ele><time>2026-05-02T18:15:32.683Z</time></trkpt><trkpt lat="43.8106627" lon="10.4092091"><ele>7.0</ele><time>2026-05-02T18:15:39.684Z</time></trkpt><trkpt lat="43.8107233" lon="10.4092573"><ele>7.0</ele><time>2026-05-02T18:15:46.683Z</time></trkpt><trkpt lat="43.8107877" lon="10.409294"><ele>7.0</ele><time>2026-05-02T18:15:51.679Z</time></trkpt><trkpt lat="43.8108543" lon="10.4093211"><ele>7.0</ele><time>2026-05-02T18:15:57.679Z</time></trkpt><trkpt lat="43.8109022" lon="10.4093844"><ele>7.0</ele><time>2026-05-02T18:16:05.681Z</time></trkpt><trkpt lat="43.8109656" lon="10.4094458"><ele>7.0</ele><time>2026-05-02T18:16:20.681Z</time></trkpt><trkpt lat="43.811034" lon="10.4094818"><ele>7.0</ele><time>2026-05-02T18:16:27.679Z</time></trkpt><trkpt lat="43.8110919" lon="10.409519"><ele>7.0</ele><time>2026-05-02T18:16:33.68Z</time></trkpt><trkpt lat="43.8111582" lon="10.4095505"><ele>7.0</ele><time>2026-05-02T18:16:40.681Z</time></trkpt><trkpt lat="43.8112143" lon="10.4095919"><ele>7.0</ele><time>2026-05-02T18:16:47.678Z</time></trkpt><trkpt lat="43.8112694" lon="10.4096395"><ele>7.0</ele><time>2026-05-02T18:16:54.679Z</time></trkpt><trkpt lat="43.8113264" lon="10.4096795"><ele>7.0</ele><time>2026-05-02T18:17:01.681Z</time></trkpt><trkpt lat="43.8113887" lon="10.4096962"><ele>7.0</ele><time>2026-05-02T18:17:08.682Z</time></trkpt><trkpt lat="43.8114429" lon="10.4097491"><ele>7.0</ele><time>2026-05-02T18:17:15.689Z</time></trkpt><trkpt lat="43.8114999" lon="10.4098044"><ele>7.0</ele><time>2026-05-02T18:17:25.683Z</time></trkpt><trkpt lat="43.8115598" lon="10.4098372"><ele>7.142857142857142</ele><time>2026-05-02T18:17:32.685Z</time></trkpt><trkpt lat="43.8116125" lon="10.4098872"><ele>7.285714285714286</ele><time>2026-05-02T18:17:38.685Z</time></trkpt><trkpt lat="43.8116711" lon="10.4099365"><ele>7.428571428571429</ele><time>2026-05-02T18:17:45.683Z</time></trkpt><trkpt lat="43.8117339" lon="10.4099612"><ele>7.571428571428571</ele><time>2026-05-02T18:17:53.683Z</time></trkpt><trkpt lat="43.8117962" lon="10.410003"><ele>7.7142857142857135</ele><time>2026-05-02T18:18:03.684Z</time></trkpt><trkpt lat="43.8118602" lon="10.4100425"><ele>7.857142857142857</ele><time>2026-05-02T18:18:11.682Z</time></trkpt><trkpt lat="43.8119186" lon="10.4100772"><ele>8.0</ele><time>2026-05-02T18:18:17.683Z</time></trkpt><trkpt lat="43.8119848" lon="10.410077"><ele>8.0</ele><time>2026-05-02T18:18:42.685Z</time></trkpt><trkpt lat="43.8120267" lon="10.409995"><ele>7.999999999999999</ele><time>2026-05-02T18:19:03.683Z</time></trkpt><trkpt lat="43.81196" lon="10.409945"><ele>8.0</ele><time>2026-05-02T18:19:09.683Z</time></trkpt><trkpt lat="43.8119167" lon="10.40988"><ele>8.0</ele><time>2026-05-02T18:19:13.682Z</time></trkpt><trkpt lat="43.8119733" lon="10.4100017"><ele>7.999999999999999</ele><time>2026-05-02T18:19:43.683Z</time></trkpt><trkpt lat="43.812" lon="10.410085"><ele>8.0</ele><time>2026-05-02T18:19:51.683Z</time></trkpt><trkpt lat="43.8120433" lon="10.4101533"><ele>8.0</ele><time>2026-05-02T18:21:29.684Z</time></trkpt><trkpt lat="43.8121017" lon="10.410205"><ele>8.0</ele><time>2026-05-02T18:21:37.679Z</time></trkpt><trkpt lat="43.8121633" lon="10.4102567"><ele>8.0</ele><time>2026-05-02T18:21:43.681Z</time></trkpt><trkpt lat="43.8122284" lon="10.4102867"><ele>8.0</ele><time>2026-05-02T18:21:50.681Z</time></trkpt><trkpt lat="43.8122876" lon="10.4103262"><ele>8.0</ele><time>2026-05-02T18:21:56.68Z</time></trkpt><trkpt lat="43.8123509" lon="10.4103805"><ele>8.0</ele><time>2026-05-02T18:22:02.68Z</time></trkpt><trkpt lat="43.8124121" lon="10.4104286"><ele>8.0</ele><time>2026-05-02T18:22:09.681Z</time></trkpt><trkpt lat="43.8124705" lon="10.4104656"><ele>8.0</ele><time>2026-05-02T18:22:15.682Z</time></trkpt></trkseg></trk></gpx>